Time;durP1;ratioP1;P1;durP2;ratioP2;P2;SDS_P1;SDS_P2;PMS_P1;PMS_P2;Temp;Humidity;BMP_temperature;BMP_pressure;BME280_temperature;BME280_humidity;BME280_pressure;Samples;Min_cycle;Max_cycle;Signal;HPM_P1;HPM_P2
2022/07/27 00:01:52;;;;;;;7.57;2.90;;;;;;;;;;5068826;28;20051;-58
2022/07/27 00:04:19;;;;;;;10.20;2.87;;;;;;;;;;5069098;28;20040;-58
2022/07/27 00:06:45;;;;;;;7.17;3.00;;;;;;;;;;5068844;28;20044;-58
2022/07/27 00:09:11;;;;;;;7.87;3.00;;;;;;;;;;5068787;28;20056;-58
2022/07/27 00:11:37;;;;;;;10.47;3.57;;;;;;;;;;5068974;28;20032;-58
2022/07/27 00:14:03;;;;;;;7.23;3.00;;;;;;;;;;5069020;28;20048;-58
2022/07/27 00:16:29;;;;;;;10.60;3.20;;;;;;;;;;5068681;28;20526;-58
2022/07/27 00:18:55;;;;;;;8.10;3.23;;;;;;;;;;5068770;28;20046;-58
2022/07/27 00:21:21;;;;;;;7.93;3.67;;;;;;;;;;5068639;28;20037;-58
2022/07/27 00:23:47;;;;;;;13.40;3.63;;;;;;;;;;5067454;28;20826;-58
2022/07/27 00:26:13;;;;;;;9.40;3.23;;;;;;;;;;5068734;28;20415;-58
2022/07/27 00:28:39;;;;;;;10.10;3.37;;;;;;;;;;5068650;28;20043;-58
2022/07/27 00:31:06;;;;;;;11.53;4.37;;;;;;;;;;5068597;28;20048;-58
2022/07/27 00:33:32;;;;;;;10.10;3.70;;;;;;;;;;5068277;28;20055;-59
2022/07/27 00:35:58;;;;;;;10.17;3.47;;;;;;;;;;5068049;28;20098;-58
2022/07/27 00:38:24;;;;;;;14.27;3.97;;;;;;;;;;5068723;28;20718;-58
2022/07/27 00:40:50;;;;;;;6.83;3.57;;;;;;;;;;5068510;28;20197;-58
2022/07/27 00:43:16;;;;;;;11.43;3.20;;;;;;;;;;5068419;28;20114;-58
2022/07/27 00:45:42;;;;;;;10.40;3.53;;;;;;;;;;5068069;28;20522;-59
2022/07/27 00:48:08;;;;;;;7.63;3.37;;;;;;;;;;5068605;28;20048;-59
2022/07/27 00:50:35;;;;;;;9.57;3.53;;;;;;;;;;5068554;28;20052;-58
2022/07/27 00:53:03;;;;;;;10.30;3.83;;;;;;;;;;5068628;28;20083;-58
2022/07/27 00:55:31;;;;;;;7.30;2.67;;;;;;;;;;5068318;28;20421;-59
2022/07/27 00:57:57;;;;;;;6.03;2.93;;;;;;;;;;5068272;28;20053;-58
2022/07/27 01:00:23;;;;;;;10.60;3.73;;;;;;;;;;5068662;28;20076;-58
2022/07/27 01:02:49;;;;;;;10.73;3.40;;;;;;;;;;5068439;28;20135;-58
2022/07/27 01:05:15;;;;;;;9.27;4.33;;;;;;;;;;5068207;28;20648;-58
2022/07/27 01:07:42;;;;;;;10.83;3.50;;;;;;;;;;5067715;28;20060;-59
2022/07/27 01:10:08;;;;;;;9.30;3.50;;;;;;;;;;5069677;28;20470;-59
2022/07/27 01:12:34;;;;;;;9.17;3.50;;;;;;;;;;5071923;28;20037;-59
2022/07/27 01:15:00;;;;;;;11.43;3.07;;;;;;;;;;5071492;28;20044;-58
2022/07/27 01:17:30;;;;;;;6.20;2.70;;;;;;;;;;5071732;28;20052;-59
2022/07/27 01:19:57;;;;;;;6.13;3.10;;;;;;;;;;5071768;28;20047;-58
2022/07/27 01:22:23;;;;;;;7.10;2.90;;;;;;;;;;5072127;28;20131;-59
2022/07/27 01:24:49;;;;;;;7.13;2.57;;;;;;;;;;5071476;28;20052;-59
2022/07/27 01:27:16;;;;;;;12.73;3.50;;;;;;;;;;5072115;28;20044;-59
2022/07/27 01:29:42;;;;;;;10.40;3.30;;;;;;;;;;5071899;28;20044;-59
2022/07/27 01:32:08;;;;;;;6.83;2.80;;;;;;;;;;5071323;28;20052;-59
2022/07/27 01:34:34;;;;;;;6.27;2.40;;;;;;;;;;5071513;28;20040;-59
2022/07/27 01:37:01;;;;;;;7.97;2.77;;;;;;;;;;5071295;28;20051;-59
2022/07/27 01:39:27;;;;;;;12.07;3.10;;;;;;;;;;5071404;28;20048;-59
2022/07/27 01:41:53;;;;;;;8.27;3.30;;;;;;;;;;5071429;28;20091;-59
2022/07/27 01:44:19;;;;;;;10.80;3.43;;;;;;;;;;5071469;28;20083;-59
2022/07/27 01:46:45;;;;;;;6.73;3.00;;;;;;;;;;5071395;28;20540;-59
2022/07/27 01:49:11;;;;;;;8.13;2.90;;;;;;;;;;5071006;28;20049;-59
2022/07/27 01:51:37;;;;;;;6.70;3.07;;;;;;;;;;5070842;28;20070;-59
2022/07/27 01:54:03;;;;;;;8.90;2.80;;;;;;;;;;5071256;28;20414;-59
2022/07/27 01:56:30;;;;;;;5.67;2.90;;;;;;;;;;5070904;28;20056;-59
2022/07/27 01:58:56;;;;;;;9.17;2.47;;;;;;;;;;5071380;28;20041;-59
2022/07/27 02:01:22;;;;;;;10.17;3.43;;;;;;;;;;5070820;28;20048;-59
2022/07/27 02:03:48;;;;;;;9.67;3.40;;;;;;;;;;5071114;28;20086;-58
2022/07/27 02:06:14;;;;;;;7.03;3.47;;;;;;;;;;5071008;28;20044;-59
2022/07/27 02:08:40;;;;;;;10.07;3.30;;;;;;;;;;5070809;28;20450;-59
2022/07/27 02:13:51;;;;;;;9.63;3.23;;;;;;;;;;5070587;28;20045;-58
2022/07/27 02:16:18;;;;;;;7.97;2.60;;;;;;;;;;5070840;28;20041;-58
2022/07/27 02:18:45;;;;;;;9.53;3.23;;;;;;;;;;5070508;28;20052;-59
2022/07/27 02:21:12;;;;;;;8.53;2.93;;;;;;;;;;5069376;28;20103;-59
2022/07/27 02:23:38;;;;;;;10.93;3.13;;;;;;;;;;5070595;28;20059;-59
2022/07/27 02:26:05;;;;;;;8.47;2.70;;;;;;;;;;5070175;28;20800;-59
2022/07/27 02:28:32;;;;;;;12.10;3.30;;;;;;;;;;5070322;28;20050;-59
2022/07/27 02:30:58;;;;;;;13.37;3.87;;;;;;;;;;5070881;28;20047;-58
2022/07/27 02:33:24;;;;;;;8.20;3.70;;;;;;;;;;5070476;28;20154;-59
2022/07/27 02:35:50;;;;;;;9.73;3.37;;;;;;;;;;5070026;28;20499;-59
2022/07/27 02:38:16;;;;;;;8.17;3.67;;;;;;;;;;5070343;28;20048;-58
2022/07/27 02:40:42;;;;;;;10.37;3.53;;;;;;;;;;5070341;28;20048;-59
2022/07/27 02:43:08;;;;;;;12.00;3.40;;;;;;;;;;5069769;28;20059;-59
2022/07/27 02:45:34;;;;;;;7.43;3.30;;;;;;;;;;5070292;28;20049;-58
2022/07/27 02:48:00;;;;;;;9.40;3.80;;;;;;;;;;5070183;28;20521;-59
2022/07/27 02:50:26;;;;;;;7.70;3.97;;;;;;;;;;5069839;28;20086;-59
2022/07/27 02:52:52;;;;;;;13.13;4.00;;;;;;;;;;5070432;28;20498;-58
2022/07/27 02:55:19;;;;;;;7.80;4.03;;;;;;;;;;5070072;28;20088;-59
2022/07/27 02:57:45;;;;;;;10.87;3.90;;;;;;;;;;5069762;28;20141;-59
2022/07/27 03:00:12;;;;;;;7.53;3.73;;;;;;;;;;5069886;28;20048;-59
2022/07/27 03:02:39;;;;;;;9.73;3.70;;;;;;;;;;5069519;28;20048;-58
2022/07/27 03:05:05;;;;;;;8.50;4.17;;;;;;;;;;5069625;28;20044;-59
2022/07/27 03:07:32;;;;;;;11.20;3.77;;;;;;;;;;5069762;28;20045;-59
2022/07/27 03:09:58;;;;;;;9.83;4.10;;;;;;;;;;5069712;28;20067;-59
2022/07/27 03:12:24;;;;;;;12.53;4.17;;;;;;;;;;5069235;28;20048;-59
2022/07/27 03:14:50;;;;;;;10.30;4.13;;;;;;;;;;5069820;28;20048;-58
2022/07/27 03:17:16;;;;;;;7.00;4.33;;;;;;;;;;5069541;28;20383;-58
2022/07/27 03:19:42;;;;;;;11.50;5.20;;;;;;;;;;5069116;28;20048;-59
2022/07/27 03:22:08;;;;;;;7.80;4.30;;;;;;;;;;5069052;28;20054;-58
2022/07/27 03:24:34;;;;;;;8.93;4.50;;;;;;;;;;5069225;28;20499;-58
2022/07/27 03:27:00;;;;;;;11.90;4.63;;;;;;;;;;5069421;28;20040;-59
2022/07/27 03:29:26;;;;;;;9.90;4.80;;;;;;;;;;5069235;28;20052;-59
2022/07/27 03:31:52;;;;;;;11.93;4.57;;;;;;;;;;5069234;28;20110;-59
2022/07/27 03:34:18;;;;;;;16.37;5.00;;;;;;;;;;5068386;28;20052;-59
2022/07/27 03:36:45;;;;;;;10.40;4.87;;;;;;;;;;5069185;28;20639;-59
2022/07/27 03:39:12;;;;;;;10.63;4.70;;;;;;;;;;5067639;28;20494;-59
2022/07/27 03:41:38;;;;;;;10.83;5.03;;;;;;;;;;5069140;28;20131;-59
2022/07/27 03:44:05;;;;;;;11.97;5.03;;;;;;;;;;5068976;28;20128;-58
2022/07/27 03:46:31;;;;;;;9.20;3.80;;;;;;;;;;5068728;28;20060;-58
2022/07/27 03:48:57;;;;;;;9.53;3.60;;;;;;;;;;5068714;28;20055;-59
2022/07/27 03:51:23;;;;;;;9.90;4.33;;;;;;;;;;5069349;28;20063;-58
2022/07/27 03:53:50;;;;;;;11.37;4.60;;;;;;;;;;5068675;28;20517;-59
2022/07/27 03:56:16;;;;;;;9.47;4.30;;;;;;;;;;5069057;28;20045;-59
2022/07/27 03:58:42;;;;;;;8.40;3.87;;;;;;;;;;5068601;28;20628;-59
2022/07/27 04:01:08;;;;;;;17.17;6.60;;;;;;;;;;5068449;28;20058;-59
2022/07/27 04:03:34;;;;;;;8.90;5.10;;;;;;;;;;5069215;28;20117;-59
2022/07/27 04:06:04;;;;;;;11.30;5.20;;;;;;;;;;5068983;28;20048;-59
2022/07/27 04:08:30;;;;;;;10.37;4.80;;;;;;;;;;5068896;28;20156;-59
2022/07/27 04:10:56;;;;;;;13.33;5.53;;;;;;;;;;5069046;28;20130;-59
2022/07/27 04:13:22;;;;;;;10.00;5.30;;;;;;;;;;5068562;28;20044;-59
2022/07/27 04:15:48;;;;;;;14.33;5.97;;;;;;;;;;5067300;28;20041;-59
2022/07/27 04:18:15;;;;;;;13.70;4.63;;;;;;;;;;5066390;28;20053;-59
2022/07/27 04:20:41;;;;;;;10.83;4.70;;;;;;;;;;5068262;28;20045;-59
2022/07/27 04:23:07;;;;;;;11.37;5.17;;;;;;;;;;5066075;28;20052;-59
2022/07/27 04:25:33;;;;;;;14.23;4.80;;;;;;;;;;5066793;28;20040;-59
2022/07/27 04:27:59;;;;;;;13.80;6.17;;;;;;;;;;5067874;28;20047;-59
2022/07/27 04:30:25;;;;;;;18.30;4.97;;;;;;;;;;5067063;28;20041;-59
2022/07/27 04:32:52;;;;;;;11.20;5.00;;;;;;;;;;5066085;28;20151;-59
2022/07/27 04:35:18;;;;;;;11.67;4.93;;;;;;;;;;5065925;28;20041;-59
2022/07/27 04:37:44;;;;;;;12.20;4.53;;;;;;;;;;5066627;28;20044;-60
2022/07/27 04:40:11;;;;;;;12.90;5.03;;;;;;;;;;5066917;28;20045;-60
2022/07/27 04:42:37;;;;;;;12.23;5.47;;;;;;;;;;5066547;28;20486;-59
2022/07/27 04:45:03;;;;;;;12.33;5.20;;;;;;;;;;5068130;28;20056;-59
2022/07/27 04:47:29;;;;;;;11.03;3.93;;;;;;;;;;5071329;28;20751;-59
2022/07/27 04:49:56;;;;;;;9.30;4.30;;;;;;;;;;5071554;28;20525;-59
2022/07/27 04:52:22;;;;;;;9.27;4.80;;;;;;;;;;5071009;28;20398;-59
2022/07/27 04:54:54;;;;;;;10.73;4.83;;;;;;;;;;5071186;28;20044;-59
2022/07/27 04:57:21;;;;;;;9.13;4.90;;;;;;;;;;5071416;28;20048;-59
2022/07/27 04:59:47;;;;;;;11.83;5.10;;;;;;;;;;5071036;28;20044;-59
2022/07/27 05:02:14;;;;;;;12.47;5.00;;;;;;;;;;5070770;28;20494;-59
2022/07/27 05:04:40;;;;;;;12.37;5.20;;;;;;;;;;5071145;28;20090;-59
2022/07/27 05:07:06;;;;;;;12.33;5.47;;;;;;;;;;5071186;28;20127;-59
2022/07/27 05:09:32;;;;;;;12.40;5.90;;;;;;;;;;5071251;28;20044;-59
2022/07/27 05:11:58;;;;;;;10.67;5.90;;;;;;;;;;5071145;28;20056;-59
2022/07/27 05:14:24;;;;;;;14.83;6.73;;;;;;;;;;5071277;28;20463;-60
2022/07/27 05:16:50;;;;;;;16.27;6.43;;;;;;;;;;5070450;28;20414;-59
2022/07/27 05:19:16;;;;;;;14.07;6.87;;;;;;;;;;5070731;28;20100;-60
2022/07/27 05:21:42;;;;;;;13.20;7.33;;;;;;;;;;5070816;28;20051;-59
2022/07/27 05:24:09;;;;;;;16.07;7.03;;;;;;;;;;5070793;28;20136;-59
2022/07/27 05:26:35;;;;;;;13.27;5.77;;;;;;;;;;5070212;28;20414;-60
2022/07/27 05:29:01;;;;;;;15.37;6.07;;;;;;;;;;5070647;28;20048;-59
2022/07/27 05:31:27;;;;;;;13.47;5.70;;;;;;;;;;5070554;28;20052;-59
2022/07/27 05:33:54;;;;;;;11.57;6.10;;;;;;;;;;5070678;28;20184;-60
2022/07/27 05:36:21;;;;;;;9.27;5.17;;;;;;;;;;5069017;28;20521;-59
2022/07/27 05:38:47;;;;;;;14.87;5.60;;;;;;;;;;5070379;28;20164;-60
2022/07/27 05:41:13;;;;;;;10.87;5.40;;;;;;;;;;5070201;28;20036;-60
2022/07/27 05:43:39;;;;;;;12.57;6.10;;;;;;;;;;5069715;28;20060;-60
2022/07/27 05:46:05;;;;;;;11.67;5.83;;;;;;;;;;5070573;28;20399;-59
2022/07/27 05:48:31;;;;;;;9.83;5.37;;;;;;;;;;5069799;28;20099;-60
2022/07/27 05:50:57;;;;;;;12.73;5.63;;;;;;;;;;5069839;28;20079;-60
2022/07/27 05:53:24;;;;;;;13.93;5.47;;;;;;;;;;5070801;28;20084;-60
2022/07/27 05:55:51;;;;;;;10.00;5.33;;;;;;;;;;5069824;28;20052;-60
2022/07/27 05:58:17;;;;;;;7.47;4.50;;;;;;;;;;5070252;28;20098;-59
2022/07/27 06:00:43;;;;;;;6.20;3.10;;;;;;;;;;5070216;28;20036;-60
2022/07/27 06:03:09;;;;;;;8.40;4.43;;;;;;;;;;5069744;28;20453;-59
2022/07/27 06:05:35;;;;;;;7.13;3.33;;;;;;;;;;5070120;28;20044;-59
2022/07/27 06:08:10;;;;;;;9.03;2.63;;;;;;;;;;5070238;28;20041;-61
2022/07/27 06:10:37;;;;;;;8.77;2.30;;;;;;;;;;5070200;28;20596;-59
2022/07/27 06:13:04;;;;;;;9.33;2.70;;;;;;;;;;5069675;28;20543;-60
2022/07/27 06:15:30;;;;;;;5.17;2.63;;;;;;;;;;5069863;28;20109;-60
2022/07/27 06:17:56;;;;;;;6.10;2.40;;;;;;;;;;5069494;28;20048;-60
2022/07/27 06:20:23;;;;;;;10.50;2.30;;;;;;;;;;5069918;28;20052;-60
2022/07/27 06:22:54;;;;;;;6.73;2.70;;;;;;;;;;5069293;28;20442;-60
2022/07/27 06:25:20;;;;;;;8.57;1.80;;;;;;;;;;5069720;28;20047;-60
2022/07/27 06:27:47;;;;;;;7.07;2.20;;;;;;;;;;5069613;28;20162;-60
2022/07/27 06:30:14;;;;;;;5.50;2.07;;;;;;;;;;5069332;28;20093;-60
2022/07/27 06:32:40;;;;;;;6.83;2.17;;;;;;;;;;5069515;28;20435;-59
2022/07/27 06:35:07;;;;;;;10.20;2.87;;;;;;;;;;5069125;28;20127;-59
2022/07/27 06:37:33;;;;;;;6.47;1.73;;;;;;;;;;5069390;28;20177;-60
2022/07/27 06:39:59;;;;;;;8.40;1.67;;;;;;;;;;5069256;28;20099;-59
2022/07/27 06:42:26;;;;;;;6.60;1.70;;;;;;;;;;5069205;28;20044;-60
2022/07/27 06:44:52;;;;;;;6.90;1.77;;;;;;;;;;5067590;28;20510;-60
2022/07/27 06:47:18;;;;;;;6.40;1.97;;;;;;;;;;5069584;28;20044;-60
2022/07/27 06:49:44;;;;;;;6.77;2.10;;;;;;;;;;5069029;28;20044;-59
2022/07/27 06:52:10;;;;;;;6.23;1.60;;;;;;;;;;5069060;28;20055;-60
2022/07/27 06:54:36;;;;;;;7.87;1.90;;;;;;;;;;5068769;28;20036;-59
2022/07/27 06:57:02;;;;;;;10.03;2.10;;;;;;;;;;5068910;28;20044;-60
2022/07/27 06:59:30;;;;;;;8.60;1.70;;;;;;;;;;5068974;28;20052;-60
2022/07/27 07:01:56;;;;;;;7.17;1.60;;;;;;;;;;5069210;28;20529;-60
2022/07/27 07:04:22;;;;;;;3.97;1.50;;;;;;;;;;5069188;28;20274;-60
2022/07/27 07:06:48;;;;;;;7.97;2.27;;;;;;;;;;5068492;28;20119;-60
2022/07/27 07:09:14;;;;;;;6.93;1.50;;;;;;;;;;5054889;28;20131;-60
2022/07/27 07:11:40;;;;;;;9.40;1.60;;;;;;;;;;5048447;28;20564;-60
2022/07/27 07:14:06;;;;;;;10.43;1.80;;;;;;;;;;5049162;28;20049;-60
2022/07/27 07:16:32;;;;;;;7.80;2.00;;;;;;;;;;5048700;28;20059;-60
2022/07/27 07:18:58;;;;;;;7.50;1.80;;;;;;;;;;5049947;28;20055;-60
2022/07/27 07:21:24;;;;;;;6.77;1.57;;;;;;;;;;5048715;28;20410;-60
2022/07/27 07:23:50;;;;;;;8.10;1.90;;;;;;;;;;5047561;28;20454;-59
2022/07/27 07:26:16;;;;;;;6.57;1.47;;;;;;;;;;5057468;28;20075;-60
2022/07/27 07:28:42;;;;;;;7.43;1.93;;;;;;;;;;5068666;28;20177;-60
2022/07/27 07:31:09;;;;;;;5.70;1.50;;;;;;;;;;5067833;28;20051;-60
2022/07/27 07:33:35;;;;;;;3.47;1.07;;;;;;;;;;5067962;28;20054;-60
2022/07/27 07:36:03;;;;;;;4.97;1.70;;;;;;;;;;5066863;28;20067;-60
2022/07/27 07:38:29;;;;;;;6.60;1.93;;;;;;;;;;5067953;28;20140;-60
2022/07/27 07:40:55;;;;;;;8.03;1.60;;;;;;;;;;5067519;28;20558;-59
2022/07/27 07:43:21;;;;;;;9.40;1.47;;;;;;;;;;5067837;28;20082;-60
2022/07/27 07:45:47;;;;;;;6.03;1.33;;;;;;;;;;5068242;28;20055;-61
2022/07/27 07:48:13;;;;;;;5.80;1.60;;;;;;;;;;5061103;28;20045;-60
2022/07/27 07:50:39;;;;;;;10.53;1.57;;;;;;;;;;5056602;28;20088;-59
2022/07/27 07:53:05;;;;;;;7.17;1.57;;;;;;;;;;5048169;28;20069;-60
2022/07/27 07:55:31;;;;;;;5.10;1.07;;;;;;;;;;5047411;28;20041;-61
2022/07/27 07:57:58;;;;;;;8.23;1.57;;;;;;;;;;5047738;28;20049;-60
2022/07/27 08:00:24;;;;;;;3.83;1.10;;;;;;;;;;5048593;28;20118;-60
2022/07/27 08:02:52;;;;;;;6.80;1.53;;;;;;;;;;5048661;28;20045;-60
2022/07/27 08:05:18;;;;;;;9.10;1.70;;;;;;;;;;5048318;28;20502;-60
2022/07/27 08:07:45;;;;;;;6.57;1.13;;;;;;;;;;5049725;28;20091;-61
2022/07/27 08:10:12;;;;;;;4.87;1.20;;;;;;;;;;5058511;28;20565;-60
2022/07/27 08:12:38;;;;;;;4.53;0.90;;;;;;;;;;5057175;28;20044;-60
2022/07/27 08:15:05;;;;;;;4.47;0.90;;;;;;;;;;5055975;28;20087;-60
2022/07/27 08:17:31;;;;;;;3.23;1.00;;;;;;;;;;5055965;28;20044;-59
2022/07/27 08:19:57;;;;;;;5.43;1.40;;;;;;;;;;5068697;28;20037;-60
2022/07/27 08:22:24;;;;;;;6.97;1.10;;;;;;;;;;5068264;28;20511;-60
2022/07/27 08:24:50;;;;;;;7.13;1.10;;;;;;;;;;5068598;28;20044;-60
2022/07/27 08:27:16;;;;;;;7.07;1.27;;;;;;;;;;5068153;28;20422;-60
2022/07/27 08:29:42;;;;;;;8.00;1.43;;;;;;;;;;5068099;28;20506;-60
2022/07/27 08:32:08;;;;;;;6.10;1.37;;;;;;;;;;5068452;28;20059;-60
2022/07/27 08:34:34;;;;;;;2.73;0.87;;;;;;;;;;5068121;28;20051;-59
2022/07/27 08:37:00;;;;;;;5.10;1.13;;;;;;;;;;5067929;28;20445;-60
2022/07/27 08:39:26;;;;;;;6.23;1.20;;;;;;;;;;5068544;28;20048;-60
2022/07/27 08:41:54;;;;;;;6.43;1.00;;;;;;;;;;5068051;28;20105;-60
2022/07/27 08:44:23;;;;;;;6.00;1.07;;;;;;;;;;5067585;28;20053;-60
2022/07/27 08:46:50;;;;;;;7.77;1.50;;;;;;;;;;5068249;28;20057;-60
2022/07/27 08:49:17;;;;;;;2.73;1.00;;;;;;;;;;5068246;28;20071;-61
2022/07/27 08:51:43;;;;;;;1.80;0.70;;;;;;;;;;5068085;28;20114;-60
2022/07/27 08:54:10;;;;;;;4.00;1.20;;;;;;;;;;5067483;28;20629;-60
2022/07/27 08:56:36;;;;;;;4.20;0.97;;;;;;;;;;5066212;28;20528;-60
2022/07/27 08:59:03;;;;;;;3.57;0.80;;;;;;;;;;5067057;28;20044;-60
2022/07/27 09:01:31;;;;;;;5.73;1.13;;;;;;;;;;5066508;28;20048;-61
2022/07/27 09:03:57;;;;;;;4.90;1.40;;;;;;;;;;5067201;28;20119;-59
2022/07/27 09:06:40;;;;;;;3.37;0.90;;;;;;;;;;5067010;28;20439;-60
2022/07/27 09:09:06;;;;;;;4.55;1.13;;;;;;;;;;5066733;28;20049;-59
2022/07/27 09:11:35;;;;;;;4.50;1.00;;;;;;;;;;5066926;28;20150;-59
2022/07/27 09:14:02;;;;;;;3.60;1.10;;;;;;;;;;5068075;28;20040;-59
2022/07/27 09:16:30;;;;;;;4.55;0.93;;;;;;;;;;5067985;28;20418;-58
2022/07/27 09:19:07;;;;;;;3.22;1.00;;;;;;;;;;5067660;28;20072;-59
2022/07/27 09:21:34;;;;;;;6.07;1.38;;;;;;;;;;5067771;28;20797;-59
2022/07/27 09:24:08;;;;;;;18.35;3.72;;;;;;;;;;5067645;28;20055;-59
2022/07/27 09:26:34;;;;;;;7.22;1.38;;;;;;;;;;5067291;28;20524;-59
2022/07/27 09:29:06;;;;;;;3.30;0.90;;;;;;;;;;5067819;28;20418;-59
2022/07/27 09:31:43;;;;;;;11.32;2.30;;;;;;;;;;5068940;28;20511;-58
2022/07/27 09:34:10;;;;;;;2.92;0.95;;;;;;;;;;5071296;28;20051;-59
2022/07/27 09:36:49;;;;;;;5.55;0.90;;;;;;;;;;5071308;28;20040;-58
2022/07/27 09:39:17;;;;;;;7.82;2.53;;;;;;;;;;5071263;28;20048;-59
2022/07/27 09:41:43;;;;;;;2.88;0.82;;;;;;;;;;5071109;28;20037;-58
2022/07/27 09:44:10;;;;;;;4.25;1.02;;;;;;;;;;5070924;28;20526;-59
2022/07/27 09:46:39;;;;;;;3.38;0.95;;;;;;;;;;5070662;28;20210;-59
2022/07/27 09:49:05;;;;;;;3.70;1.70;;;;;;;;;;5071433;28;20060;-60
2022/07/27 09:51:32;;;;;;;3.70;1.13;;;;;;;;;;5061859;28;20054;-60
2022/07/27 09:53:59;;;;;;;8.15;2.28;;;;;;;;;;5054272;28;20414;-60
2022/07/27 09:56:29;;;;;;;7.63;1.25;;;;;;;;;;5056711;28;20072;-59
2022/07/27 09:58:56;;;;;;;9.77;1.45;;;;;;;;;;5061373;28;20051;-59
2022/07/27 10:01:31;;;;;;;3.45;1.05;;;;;;;;;;5058916;28;20045;-59
2022/07/27 10:03:59;;;;;;;6.05;1.50;;;;;;;;;;5070600;28;20078;-59
2022/07/27 10:06:26;;;;;;;4.50;1.42;;;;;;;;;;5064200;28;20406;-59
2022/07/27 10:08:53;;;;;;;10.43;2.08;;;;;;;;;;5051165;28;20081;-59
2022/07/27 10:11:19;;;;;;;7.00;1.55;;;;;;;;;;5050539;28;20049;-59
2022/07/27 10:13:46;;;;;;;2.65;1.05;;;;;;;;;;5050360;28;20052;-59
2022/07/27 10:16:16;;;;;;;5.35;1.15;;;;;;;;;;5050350;28;20044;-60
2022/07/27 10:18:51;;;;;;;5.18;1.33;;;;;;;;;;5050193;28;20130;-59
2022/07/27 10:21:17;;;;;;;5.97;1.38;;;;;;;;;;5050683;28;20057;-59
2022/07/27 10:23:54;;;;;;;3.60;0.90;;;;;;;;;;5050707;28;20422;-60
2022/07/27 10:26:26;;;;;;;4.70;1.55;;;;;;;;;;5051408;28;20045;-60
2022/07/27 10:28:52;;;;;;;4.85;1.30;;;;;;;;;;5050395;28;20038;-60
2022/07/27 10:31:19;;;;;;;2.55;0.90;;;;;;;;;;5050565;28;20619;-60
2022/07/27 10:33:47;;;;;;;3.73;1.07;;;;;;;;;;5049927;28;20102;-60
2022/07/27 10:36:14;;;;;;;3.95;1.40;;;;;;;;;;5050497;28;20566;-60
2022/07/27 10:38:50;;;;;;;4.38;1.02;;;;;;;;;;5050410;28;20044;-60
2022/07/27 10:41:23;;;;;;;8.38;1.48;;;;;;;;;;5053553;28;20050;-60
2022/07/27 10:43:50;;;;;;;5.00;1.17;;;;;;;;;;5053945;28;20040;-60
2022/07/27 10:46:20;;;;;;;5.93;1.45;;;;;;;;;;5061801;28;20040;-59
2022/07/27 10:48:46;;;;;;;3.45;0.93;;;;;;;;;;5070196;28;20055;-59
2022/07/27 10:51:14;;;;;;;3.38;0.70;;;;;;;;;;5051093;28;20045;-59
2022/07/27 10:53:41;;;;;;;6.40;0.90;;;;;;;;;;5050211;28;20053;-59
2022/07/27 10:56:08;;;;;;;5.65;1.08;;;;;;;;;;5049962;28;20040;-59
2022/07/27 10:58:34;;;;;;;7.88;1.23;;;;;;;;;;5050143;28;20045;-59
2022/07/27 11:01:01;;;;;;;3.58;0.90;;;;;;;;;;5050150;28;20414;-59
2022/07/27 11:03:35;;;;;;;4.15;1.15;;;;;;;;;;5049861;28;20454;-59
2022/07/27 11:06:11;;;;;;;3.13;1.00;;;;;;;;;;5064740;28;20507;-59
2022/07/27 11:08:38;;;;;;;2.75;0.90;;;;;;;;;;5049787;28;20053;-59
2022/07/27 11:11:05;;;;;;;4.68;1.10;;;;;;;;;;5053006;28;20070;-59
2022/07/27 11:13:32;;;;;;;3.00;0.98;;;;;;;;;;5069907;28;20074;-59
2022/07/27 11:16:01;;;;;;;2.60;1.00;;;;;;;;;;5056080;28;20045;-59
2022/07/27 11:18:28;;;;;;;2.85;1.00;;;;;;;;;;5050448;28;20041;-59
2022/07/27 11:21:16;;;;;;;4.72;1.40;;;;;;;;;;5050435;28;20103;-59
2022/07/27 11:23:43;;;;;;;3.25;0.88;;;;;;;;;;5055335;28;20049;-60
2022/07/27 11:26:09;;;;;;;5.85;1.25;;;;;;;;;;5062985;28;20067;-59
2022/07/27 11:28:35;;;;;;;4.65;1.17;;;;;;;;;;5049105;28;20049;-59
2022/07/27 11:31:02;;;;;;;2.22;0.73;;;;;;;;;;5050544;28;20037;-59
2022/07/27 11:33:28;;;;;;;2.10;1.02;;;;;;;;;;5049243;28;20560;-59
2022/07/27 11:35:55;;;;;;;6.00;1.30;;;;;;;;;;5050292;28;20045;-60
2022/07/27 11:38:21;;;;;;;3.17;1.05;;;;;;;;;;5061529;28;20494;-59
2022/07/27 11:40:52;;;;;;;5.40;1.13;;;;;;;;;;5056289;28;20052;-59
2022/07/27 11:43:50;;;;;;;3.85;0.80;;;;;;;;;;5049897;28;20059;-59
2022/07/27 11:46:21;;;;;;;6.13;0.98;;;;;;;;;;5054510;28;20055;-60
2022/07/27 11:49:08;;;;;;;4.60;1.15;;;;;;;;;;5062374;28;20124;-60
2022/07/27 11:51:52;;;;;;;4.18;1.10;;;;;;;;;;5052277;28;20418;-59
2022/07/27 11:54:20;;;;;;;5.18;1.13;;;;;;;;;;5050746;28;20495;-59
2022/07/27 11:56:47;;;;;;;4.45;1.45;;;;;;;;;;5049963;28;20051;-59
2022/07/27 11:59:14;;;;;;;3.53;1.10;;;;;;;;;;5049604;28;20041;-60
2022/07/27 12:01:42;;;;;;;3.97;0.80;;;;;;;;;;5059877;28;20051;-60
2022/07/27 12:04:17;;;;;;;3.65;1.15;;;;;;;;;;5056836;28;20093;-60
2022/07/27 12:07:04;;;;;;;4.15;0.90;;;;;;;;;;5052127;28;20045;-60
2022/07/27 12:09:31;;;;;;;4.78;1.23;;;;;;;;;;5047487;28;20045;-60
2022/07/27 12:11:58;;;;;;;2.38;0.73;;;;;;;;;;5048995;28;20067;-60
2022/07/27 12:14:29;;;;;;;6.70;1.65;;;;;;;;;;5048353;28;20518;-60
2022/07/27 12:17:06;;;;;;;5.28;1.20;;;;;;;;;;5048690;28;20087;-60
2022/07/27 12:19:32;;;;;;;1.77;0.80;;;;;;;;;;5048134;28;20554;-60
2022/07/27 12:21:59;;;;;;;3.20;0.93;;;;;;;;;;5048485;28;20136;-60
2022/07/27 12:24:52;;;;;;;3.97;0.90;;;;;;;;;;5048239;28;20049;-60
2022/07/27 12:27:20;;;;;;;3.95;0.90;;;;;;;;;;5048083;28;20072;-60
2022/07/27 12:30:00;;;;;;;4.45;1.13;;;;;;;;;;5048152;28;20064;-60
2022/07/27 12:32:27;;;;;;;3.40;1.05;;;;;;;;;;5048143;28;20041;-60
2022/07/27 12:34:53;;;;;;;6.03;1.85;;;;;;;;;;5048380;28;20040;-59
2022/07/27 12:37:20;;;;;;;6.13;1.15;;;;;;;;;;5048102;28;20578;-60
2022/07/27 12:39:47;;;;;;;7.20;1.88;;;;;;;;;;5048079;28;20525;-60
2022/07/27 12:42:13;;;;;;;4.07;0.90;;;;;;;;;;5048201;28;20041;-59
2022/07/27 12:44:40;;;;;;;4.10;1.30;;;;;;;;;;5048113;28;20059;-59
2022/07/27 12:50:06;;;;;;;6.60;1.08;;;;;;;;;;5048168;28;20068;-59
2022/07/27 12:52:33;;;;;;;4.60;0.90;;;;;;;;;;5047850;28;20543;-59
2022/07/27 12:54:59;;;;;;;4.78;1.45;;;;;;;;;;5048083;28;20131;-59
2022/07/27 12:57:26;;;;;;;5.50;1.00;;;;;;;;;;5048012;28;20648;-59
2022/07/27 12:59:52;;;;;;;3.78;0.88;;;;;;;;;;5048323;28;20052;-60
2022/07/27 13:02:18;;;;;;;3.60;1.10;;;;;;;;;;5047958;28;20037;-60
2022/07/27 13:04:44;;;;;;;6.30;0.90;;;;;;;;;;5048225;28;20052;-59
2022/07/27 13:07:10;;;;;;;5.28;1.25;;;;;;;;;;5051509;28;20095;-59
2022/07/27 13:09:36;;;;;;;6.40;1.50;;;;;;;;;;5051675;28;20460;-59
2022/07/27 13:12:02;;;;;;;3.10;1.00;;;;;;;;;;5052344;28;21518;-59
2022/07/27 13:14:29;;;;;;;5.60;1.05;;;;;;;;;;5052166;28;20041;-59
2022/07/27 13:16:55;;;;;;;4.10;1.00;;;;;;;;;;5051971;28;20041;-59
2022/07/27 13:19:21;;;;;;;3.53;0.90;;;;;;;;;;5051454;28;20045;-59
2022/07/27 13:21:48;;;;;;;4.50;1.10;;;;;;;;;;5051883;28;20122;-60
2022/07/27 13:24:14;;;;;;;3.72;0.73;;;;;;;;;;5051832;28;20041;-60
2022/07/27 13:26:40;;;;;;;4.22;1.10;;;;;;;;;;5051081;28;20136;-59
2022/07/27 13:29:06;;;;;;;6.13;1.15;;;;;;;;;;5052007;28;20102;-60
2022/07/27 13:31:32;;;;;;;1.88;0.80;;;;;;;;;;5051345;28;20052;-60
2022/07/27 13:33:59;;;;;;;2.83;0.77;;;;;;;;;;5051581;28;20063;-60
2022/07/27 13:36:25;;;;;;;3.42;1.00;;;;;;;;;;5051587;28;20090;-60
2022/07/27 13:38:51;;;;;;;4.60;1.02;;;;;;;;;;5051231;28;20101;-60
2022/07/27 13:41:17;;;;;;;2.67;0.80;;;;;;;;;;5051153;28;20073;-60
2022/07/27 13:43:43;;;;;;;2.75;0.63;;;;;;;;;;5050927;28;20053;-60
2022/07/27 13:46:09;;;;;;;2.97;0.80;;;;;;;;;;5051169;28;20334;-60
2022/07/27 13:48:36;;;;;;;3.30;1.30;;;;;;;;;;5051378;28;20518;-60
2022/07/27 13:51:04;;;;;;;3.10;0.82;;;;;;;;;;5050976;28;20052;-59
2022/07/27 13:53:31;;;;;;;3.28;0.80;;;;;;;;;;5051337;28;20052;-59
2022/07/27 13:55:57;;;;;;;2.35;0.63;;;;;;;;;;5050945;28;20439;-60
2022/07/27 13:58:23;;;;;;;1.50;0.50;;;;;;;;;;5050633;28;20523;-59
2022/07/27 14:00:50;;;;;;;3.45;0.80;;;;;;;;;;5050852;28;20068;-60
2022/07/27 14:03:17;;;;;;;1.77;0.60;;;;;;;;;;5051122;28;20051;-59
2022/07/27 14:05:43;;;;;;;2.67;0.80;;;;;;;;;;5051036;28;20412;-61
2022/07/27 14:08:09;;;;;;;2.45;0.55;;;;;;;;;;5050824;28;20041;-61
2022/07/27 14:10:41;;;;;;;2.55;0.60;;;;;;;;;;5051142;28;20045;-59
2022/07/27 14:13:08;;;;;;;4.32;0.80;;;;;;;;;;5051169;28;20056;-59
2022/07/27 14:15:36;;;;;;;2.42;0.70;;;;;;;;;;5050900;28;20098;-59
2022/07/27 14:18:03;;;;;;;3.20;0.80;;;;;;;;;;5057735;28;20048;-59
2022/07/27 14:20:29;;;;;;;4.25;0.52;;;;;;;;;;5060461;28;20103;-59
2022/07/27 14:22:55;;;;;;;2.95;0.75;;;;;;;;;;5060618;28;20226;-58
2022/07/27 14:25:21;;;;;;;4.07;0.60;;;;;;;;;;5059451;28;20033;-60
2022/07/27 14:27:47;;;;;;;2.65;0.55;;;;;;;;;;5059915;28;20499;-60
2022/07/27 14:30:13;;;;;;;4.07;0.70;;;;;;;;;;5058107;28;20045;-60
2022/07/27 14:32:39;;;;;;;3.10;0.65;;;;;;;;;;5059328;28;20082;-60
2022/07/27 14:35:05;;;;;;;4.28;0.80;;;;;;;;;;5059636;28;20048;-59
2022/07/27 14:37:35;;;;;;;2.03;0.65;;;;;;;;;;5057750;28;20045;-60
2022/07/27 14:40:01;;;;;;;5.45;0.90;;;;;;;;;;5057810;28;20041;-60
2022/07/27 14:42:27;;;;;;;4.25;0.55;;;;;;;;;;5059988;28;20098;-59
2022/07/27 14:44:53;;;;;;;3.33;1.15;;;;;;;;;;5058349;28;20064;-60
2022/07/27 14:47:19;;;;;;;5.10;0.90;;;;;;;;;;5058431;28;20549;-60